Egan, Iowa
Current Conditions -  °F | °C
As of 1:55 PM on Thursday 18 Dec 2014 (Local Time) from KPDC Reporting Station
Overcast Overcast  
Wind Chill: 27°   Ceiling: 2400
Heat Index: 27°   Visibility: 10mi
Dew Point: 17°   Wind: 0mph
Humidity: 65%   Direction: NA
Pressure: 30.25"   Gusts: NA
Location:  43.1584°N, 91.2436°W
Report Text: KPDC 181955Z AUTO 00000KT 10SM OVC024 M03/M08 A3025 RMK AO2 T10271084
Loading
Personal Weather Stations






























Interactive Weather Map New forecast layout! Learn more

10-Day Weather Forecast

Advertisements
Track Severe Weather on mobile